createdAt,value
2018-09-18T00:02:38.345Z,3.87
2018-09-18T00:08:33.356Z,3.92
2018-09-18T00:14:28.378Z,3.45
2018-09-18T00:20:23.366Z,3.79
2018-09-18T00:26:18.359Z,4.24
2018-09-18T00:32:13.416Z,3.46
2018-09-18T00:38:08.355Z,3.76
2018-09-18T00:44:03.376Z,3.6
2018-09-18T00:49:58.355Z,4.15
2018-09-18T00:55:53.410Z,3.86
2018-09-18T01:01:48.385Z,3.55
2018-09-18T01:07:43.370Z,3.69
2018-09-18T01:13:38.393Z,3.36
2018-09-18T01:19:33.373Z,3.53
2018-09-18T01:25:28.384Z,3.41
2018-09-18T01:31:23.408Z,3.12
2018-09-18T01:37:18.440Z,2.77
2018-09-18T01:43:13.399Z,3.19
2018-09-18T01:49:08.377Z,2.87
2018-09-18T01:55:03.381Z,3
2018-09-18T02:00:58.446Z,3.61
2018-09-18T02:06:53.461Z,3.25
2018-09-18T02:12:48.385Z,3.28
2018-09-18T02:18:43.393Z,3.24
2018-09-18T02:24:38.487Z,2.74
2018-09-18T02:30:33.443Z,3.96
2018-09-18T02:36:28.373Z,3.37
2018-09-18T02:42:23.416Z,3.54
2018-09-18T02:48:18.419Z,3.17
2018-09-18T02:54:13.440Z,2.75
2018-09-18T03:00:08.394Z,2.57
2018-09-18T03:06:03.424Z,2.96
2018-09-18T03:11:58.392Z,3.51
2018-09-18T03:17:53.406Z,2.86
2018-09-18T03:23:48.441Z,3.19
2018-09-18T03:29:43.446Z,3.27
2018-09-18T03:35:38.450Z,3.1
2018-09-18T03:41:33.415Z,3.06
2018-09-18T03:47:28.438Z,3.23
2018-09-18T03:53:23.423Z,3.12
2018-09-18T03:59:18.462Z,3.2
2018-09-18T04:05:13.401Z,2.97
2018-09-18T04:11:08.415Z,3.42
2018-09-18T04:17:03.501Z,3.09
2018-09-18T04:22:58.416Z,3.33
2018-09-18T04:28:53.401Z,3.13
2018-09-18T04:34:48.409Z,2.82
2018-09-18T04:40:43.427Z,3.16
2018-09-18T04:46:38.441Z,2.82
2018-09-18T04:52:33.428Z,3.24
2018-09-18T04:58:28.420Z,3.52
2018-09-18T05:04:23.480Z,2.77
2018-09-18T05:10:18.433Z,3.03
2018-09-18T05:16:13.446Z,3.29
2018-09-18T05:22:08.454Z,3.01
2018-09-18T05:28:03.438Z,2.95
2018-09-18T05:33:58.431Z,3.97
2018-09-18T05:39:53.457Z,4.74
2018-09-18T05:45:48.434Z,4.23
2018-09-18T05:51:43.428Z,4.6
2018-09-18T05:57:38.442Z,4.65
2018-09-18T06:03:33.470Z,4.7
2018-09-18T06:09:28.435Z,4.41
